Terminal Aerodrome Forecast
Issued by NWS Charleston, WV

Home | Current Version | Previous Version | Text Only | Print | Product List | Glossary On
Versions: 1 2 3 4 5 6 7 8 9 10 11 12 13 14 15 16 17 18 19 20 21 22 23 24 25 26 27
000
FTUS41 KRLX 302323
TAFCRW
TAF
KCRW 302323Z 3100/3124 14010G18KT P6SM BKN150
     FM310400 16009G15KT P6SM BKN200
     FM310800 15007KT P6SM OVC060
      TEMPO 3108/3109 2SM SHRA OVC040
     FM310900 15007KT 3SM SHRA SCT025 OVC045
     FM311400 21007KT 3SM SHRA OVC008
     FM311600 22008KT 3SM SHRA OVC020
     FM311900 26009KT P6SM OVC020
     FM312300 25008KT P6SM OVC015=

USA.gov is the U.S. government's official web portal to all federal, state and local government web resources and services.